Time;durP1;ratioP1;P1;durP2;ratioP2;P2;SDS_P1;SDS_P2;PMS_P1;PMS_P2;Temp;Humidity;BMP_temperature;BMP_pressure;BME280_temperature;BME280_humidity;BME280_pressure;Samples;Min_cycle;Max_cycle;Signal;HPM_P1;HPM_P2
2023/01/28 00:02:03;;;;;;;24.17;13.45;;;;;;;5.09;57.79;101214.94;4863859;29;20340;-83
2023/01/28 00:05:03;;;;;;;20.77;12.77;;;;;;;5.02;58.00;101210.13;4870502;29;20081;-83
2023/01/28 00:07:57;;;;;;;21.90;11.40;;;;;;;4.96;57.78;101211.31;4869300;29;20199;-81
2023/01/28 00:10:48;;;;;;;20.20;11.70;;;;;;;4.09;58.25;101067.09;4889100;29;20071;-81
2023/01/28 00:13:42;;;;;;;21.77;12.63;;;;;;;4.89;58.76;101210.81;4858441;28;20220;-84
2023/01/28 00:16:22;;;;;;;25.55;13.20;;;;;;;4.65;59.54;101180.59;4855543;29;20055;-80
2023/01/28 00:19:02;;;;;;;24.20;12.02;;;;;;;4.79;59.64;101199.09;4858818;29;20055;-80
2023/01/28 00:21:40;;;;;;;26.02;13.27;;;;;;;4.23;59.88;101111.03;4872644;28;20158;-81
2023/01/28 00:24:24;;;;;;;23.08;13.00;;;;;;;4.83;59.82;101211.16;4885437;28;20399;-82
2023/01/28 00:27:03;;;;;;;26.95;12.88;;;;;;;4.54;60.09;101172.44;4881667;28;20318;-81
2023/01/28 00:29:42;;;;;;;22.77;12.43;;;;;;;4.70;60.47;101196.97;4879994;28;20158;-82
2023/01/28 00:32:21;;;;;;;26.10;13.48;;;;;;;4.54;61.01;101175.06;4883003;28;20483;-82
2023/01/28 00:35:03;;;;;;;23.40;12.75;;;;;;;4.82;60.82;101221.75;4887930;28;20267;-79
2023/01/28 00:37:46;;;;;;;24.42;13.35;;;;;;;4.79;60.58;101225.41;4865646;28;20139;-82
2023/01/28 00:40:23;;;;;;;25.02;12.43;;;;;;;4.82;60.98;101225.22;4840056;29;20059;-80
2023/01/28 00:43:06;;;;;;;24.08;12.68;;;;;;;4.79;60.65;101220.16;4837213;29;20052;-81
2023/01/28 00:46:06;;;;;;;23.15;13.20;;;;;;;4.80;61.16;101223.63;4859388;29;20455;-83
2023/01/28 00:48:37;;;;;;;;;;;;;;;4.80;60.71;101227.09;4873513;29;20603;-82
2023/01/28 00:51:28;;;;;;;23.30;12.98;;;;;;;3.88;61.38;101079.59;4863635;29;20134;-82
2023/01/28 00:54:01;;;;;;;29.98;14.02;;;;;;;4.34;61.24;101169.09;4874226;29;20126;-82
2023/01/28 00:56:43;;;;;;;30.40;13.57;;;;;;;4.78;61.26;101233.38;4870248;29;20070;-81
2023/01/28 00:59:28;;;;;;;27.05;12.65;;;;;;;4.49;61.15;101181.44;4857632;29;20159;-81
2023/01/28 01:02:11;;;;;;;26.83;13.10;;;;;;;4.78;61.35;101239.50;4845717;29;20099;-81
2023/01/28 01:04:59;;;;;;;27.40;12.82;;;;;;;4.39;61.09;101168.84;4838068;29;20553;-82
2023/01/28 01:07:43;;;;;;;28.75;13.80;;;;;;;4.57;61.40;101209.09;4842240;29;20705;-81
2023/01/28 01:10:18;;;;;;;20.00;12.95;;;;;;;4.58;61.60;101216.88;4837026;29;20464;-82
2023/01/28 01:13:19;;;;;;;18.00;12.43;;;;;;;4.76;61.96;101248.38;4848215;29;20059;-82
2023/01/28 01:16:12;;;;;;;25.58;13.18;;;;;;;4.75;62.63;101242.28;4840378;29;21004;-81
2023/01/28 01:19:00;;;;;;;20.60;12.70;;;;;;;4.47;61.71;101188.56;4853482;29;20043;-81
2023/01/28 01:21:37;;;;;;;22.27;13.45;;;;;;;4.17;62.45;101137.63;4835588;29;20320;-82
2023/01/28 01:24:23;;;;;;;21.67;12.95;;;;;;;4.74;61.94;101237.97;4840924;29;20169;-82
2023/01/28 01:27:05;;;;;;;23.58;13.95;;;;;;;4.65;61.85;101213.00;4839447;29;20079;-82
2023/01/28 01:29:52;;;;;;;26.17;13.18;;;;;;;4.78;61.41;101223.72;4857804;29;20129;-82
2023/01/28 01:32:26;;;;;;;26.48;14.10;;;;;;;4.93;61.00;101241.28;4868774;29;20477;-82
2023/01/28 01:34:53;;;;;;;20.38;12.90;;;;;;;4.88;61.05;101239.84;4872320;29;20536;-82
2023/01/28 01:37:20;;;;;;;23.40;14.40;;;;;;;4.93;60.67;101254.44;4885522;29;20055;-79
2023/01/28 01:39:46;;;;;;;21.75;13.02;;;;;;;4.97;60.72;101254.25;4874165;29;20055;-80
2023/01/28 01:42:18;;;;;;;25.80;13.85;;;;;;;4.68;60.54;101206.72;4873958;29;20075;-82
2023/01/28 01:45:04;;;;;;;25.73;13.77;;;;;;;4.97;61.04;101263.00;4886012;29;20458;-79
2023/01/28 01:47:51;;;;;;;27.38;13.90;;;;;;;4.96;61.06;101257.84;4879077;29;20489;-81
2023/01/28 01:50:26;;;;;;;20.13;12.95;;;;;;;4.96;60.48;101263.94;4875454;29;20478;-82
2023/01/28 01:52:59;;;;;;;20.20;12.40;;;;;;;4.88;60.43;101251.22;4871848;29;20043;-79
2023/01/28 01:55:33;;;;;;;21.48;12.65;;;;;;;4.88;60.31;101253.84;4872639;29;20056;-80
2023/01/28 01:58:13;;;;;;;28.80;13.50;;;;;;;5.00;59.95;101267.25;4856535;29;20058;-82
2023/01/28 02:00:49;;;;;;;19.27;11.50;;;;;;;4.19;60.46;101117.38;4867343;29;20501;-80
2023/01/28 02:03:46;;;;;;;21.00;12.90;;;;;;;4.77;60.01;101211.47;4857107;29;20342;-81
2023/01/28 02:06:33;;;;;;;20.70;11.52;;;;;;;5.04;60.41;101255.63;4858033;29;20319;-81
2023/01/28 02:08:59;;;;;;;23.65;12.30;;;;;;;5.09;60.33;101270.22;4890688;29;20056;-81
2023/01/28 02:11:32;;;;;;;17.77;11.90;;;;;;;5.07;60.29;101273.88;4879092;29;20516;-81
2023/01/28 02:14:06;;;;;;;18.50;12.05;;;;;;;5.08;60.44;101268.53;4879344;29;20401;-80
2023/01/28 02:16:51;;;;;;;21.65;12.05;;;;;;;4.93;60.58;101249.19;4889763;29;20062;-81
2023/01/28 02:19:36;;;;;;;20.90;12.35;;;;;;;5.04;61.07;101274.03;4900963;29;20333;-83
2023/01/28 02:22:09;;;;;;;21.50;11.75;;;;;;;5.05;60.50;101273.09;4882230;29;20059;-82
2023/01/28 02:24:59;;;;;;;20.00;11.40;;;;;;;5.07;60.02;101265.97;4807359;29;20308;-81
2023/01/28 02:28:11;;;;;;;17.58;11.02;;;;;;;5.10;60.31;101279.00;4836472;29;20056;-81
2023/01/28 02:30:48;;;;;;;15.60;9.73;;;;;;;5.03;60.46;101270.56;4881315;29;20059;-82
2023/01/28 02:33:24;;;;;;;16.08;9.75;;;;;;;5.09;60.47;101277.28;4872532;29;20056;-82
2023/01/28 02:35:53;;;;;;;17.67;10.07;;;;;;;5.09;60.71;101280.75;4896186;29;20055;-81
2023/01/28 02:38:38;;;;;;;14.77;9.25;;;;;;;5.07;61.24;101277.38;4915560;28;20369;-82
2023/01/28 02:41:12;;;;;;;20.30;8.98;;;;;;;4.94;61.03;101255.28;4912427;29;20532;-80
2023/01/28 02:43:46;;;;;;;15.68;8.63;;;;;;;4.97;60.82;101249.84;4888112;29;20055;-81
2023/01/28 02:49:22;;;;;;;13.93;8.73;;;;;;;4.00;62.40;101110.47;4875593;29;20064;-81
2023/01/28 02:53:39;;;;;;;22.02;8.30;;;;;;;4.96;63.32;101284.16;4895530;29;20404;-82
2023/01/28 02:55:45;;;;;;;15.23;8.25;;;;;;;4.93;64.07;101285.16;4879179;29;20257;-83
2023/01/28 02:58:38;;;;;;;16.65;8.75;;;;;;;4.81;64.52;101270.91;4893519;29;20442;-82
2023/01/28 03:01:27;;;;;;;15.88;9.30;;;;;;;4.85;65.08;101266.31;4887622;29;20282;-81
2023/01/28 03:04:43;;;;;;;20.77;10.20;;;;;;;4.90;65.54;101280.06;4891973;29;20288;-82
2023/01/28 03:07:21;;;;;;;16.88;9.90;;;;;;;4.41;66.18;101220.41;4859916;29;20288;-80
2023/01/28 03:09:57;;;;;;;18.15;10.35;;;;;;;4.54;66.07;101248.69;4896984;29;20126;-81
2023/01/28 03:36:50;;;;;;;28.30;13.15;;;;;;;4.59;67.92;101273.00;4920413;29;20425;-81
2023/01/28 03:39:28;;;;;;;23.42;12.27;;;;;;;4.37;67.88;101246.94;4937061;28;20248;-81
2023/01/28 03:42:05;;;;;;;19.95;11.55;;;;;;;3.41;67.27;101075.91;4900146;29;20053;-81
2023/01/28 03:44:53;;;;;;;22.77;12.25;;;;;;;4.71;67.42;101280.22;4914517;28;20390;-81
2023/01/28 03:47:28;;;;;;;21.25;12.30;;;;;;;4.62;67.22;101285.97;4894905;29;20054;-81
2023/01/28 03:49:58;;;;;;;23.08;12.30;;;;;;;4.65;67.57;101277.91;4885015;29;20297;-81
2023/01/28 03:52:32;;;;;;;22.40;13.02;;;;;;;4.80;67.34;101284.97;4898007;29;20059;-80
2023/01/28 03:55:14;;;;;;;23.75;12.40;;;;;;;4.71;66.96;101275.81;4892704;29;20548;-81
2023/01/28 03:57:52;;;;;;;26.23;13.25;;;;;;;4.76;67.54;101290.47;4896292;29;20109;-82
2023/01/28 04:00:41;;;;;;;23.52;12.75;;;;;;;4.67;67.45;101283.94;4852503;29;20055;-81
2023/01/28 04:03:20;;;;;;;23.02;13.00;;;;;;;4.74;67.00;101303.72;4840459;29;20339;-81
2023/01/28 04:06:05;;;;;;;27.20;13.80;;;;;;;4.82;67.43;101303.31;4840477;29;20071;-80
2023/01/28 04:08:51;;;;;;;23.50;12.98;;;;;;;4.56;66.92;101246.81;4876422;29;20278;-81
2023/01/28 04:11:35;;;;;;;20.90;13.73;;;;;;;4.82;66.83;101298.03;4894692;28;20300;-81
2023/01/28 04:14:07;;;;;;;26.23;12.70;;;;;;;4.82;66.79;101298.03;4875388;28;20286;-81
2023/01/28 04:16:42;;;;;;;27.48;14.40;;;;;;;4.60;67.34;101279.94;4894979;28;20058;-80
2023/01/28 04:19:12;;;;;;;24.65;14.40;;;;;;;4.77;67.31;101292.19;4918884;28;20125;-80
2023/01/28 04:21:41;;;;;;;26.02;14.50;;;;;;;4.72;66.68;101281.91;4890225;29;20076;-82
2023/01/28 04:24:11;;;;;;;25.33;14.93;;;;;;;4.04;66.71;101175.06;4859775;29;20400;-80
2023/01/28 04:26:47;;;;;;;25.98;14.95;;;;;;;4.83;66.74;101305.00;4885930;29;20319;-81
2023/01/28 04:29:26;;;;;;;28.43;14.77;;;;;;;4.83;66.56;101305.88;4880133;29;20047;-82
2023/01/28 04:31:55;;;;;;;25.17;15.77;;;;;;;4.88;66.46;101309.09;4881298;29;20319;-80
2023/01/28 04:34:22;;;;;;;39.00;16.55;;;;;;;4.88;66.44;101303.00;4882586;29;20051;-79
2023/01/28 04:36:52;;;;;;;29.83;14.55;;;;;;;4.58;66.34;101260.75;4870788;29;20074;-80
2023/01/28 04:39:24;;;;;;;27.63;14.40;;;;;;;4.90;66.60;101309.00;4886239;28;20349;-81
2023/01/28 04:41:55;;;;;;;23.27;14.70;;;;;;;4.90;66.07;101311.63;4928550;28;20043;-79
2023/01/28 04:44:29;;;;;;;26.40;14.73;;;;;;;4.63;67.05;101277.13;4918159;28;20047;-79
2023/01/28 04:47:05;;;;;;;32.10;15.60;;;;;;;4.71;67.11;101303.91;4907139;29;20796;-80
2023/01/28 04:49:37;;;;;;;24.60;14.82;;;;;;;4.48;66.38;101255.97;4893033;28;20086;-80
2023/01/28 04:52:09;;;;;;;25.88;13.90;;;;;;;4.62;66.28;101292.06;4867255;29;20403;-80
2023/01/28 04:54:40;;;;;;;30.50;15.85;;;;;;;4.85;66.11;101325.03;4883525;28;20055;-82
2023/01/28 04:57:10;;;;;;;28.80;14.88;;;;;;;4.69;66.09;101305.75;4864774;29;20043;-82
2023/01/28 04:59:42;;;;;;;24.83;13.95;;;;;;;4.87;65.89;101333.69;4894038;29;20565;-79
2023/01/28 05:02:16;;;;;;;32.83;16.85;;;;;;;4.43;65.44;101270.31;4869447;29;20065;-82
2023/01/28 05:04:49;;;;;;;25.38;14.80;;;;;;;4.53;66.29;101310.09;4903968;28;20755;-80
2023/01/28 05:07:24;;;;;;;27.42;14.73;;;;;;;4.92;65.69;101357.13;4865447;29;20312;-80
2023/01/28 05:09:58;;;;;;;28.40;15.60;;;;;;;4.74;65.67;101343.19;4868621;29;20043;-79
2023/01/28 05:12:32;;;;;;;25.88;16.02;;;;;;;4.81;66.12;101347.19;4876974;29;20433;-81
2023/01/28 05:15:03;;;;;;;29.48;15.93;;;;;;;4.79;65.37;101345.56;4872895;29;20311;-81
2023/01/28 05:17:31;;;;;;;27.15;15.48;;;;;;;4.77;66.46;101366.69;4913766;28;20055;-81
2023/01/28 05:20:04;;;;;;;24.40;14.98;;;;;;;4.76;66.46;101359.75;4870025;29;20055;-81
2023/01/28 05:22:31;;;;;;;32.38;15.82;;;;;;;4.75;66.89;101354.53;4881870;29;20516;-80
2023/01/28 05:25:11;;;;;;;31.80;16.00;;;;;;;4.44;66.94;101322.81;4871534;29;20295;-80
2023/01/28 05:27:53;;;;;;;33.20;15.93;;;;;;;4.74;67.02;101360.75;4857952;29;20535;-81
2023/01/28 05:30:27;;;;;;;33.28;16.05;;;;;;;4.71;66.68;101359.13;4859433;29;20066;-81
2023/01/28 05:33:04;;;;;;;32.28;16.98;;;;;;;4.74;66.94;101369.47;4893858;28;20482;-80
2023/01/28 05:35:39;;;;;;;28.00;15.60;;;;;;;4.73;66.72;101370.41;4873179;29;20557;-83
2023/01/28 05:38:14;;;;;;;26.08;14.60;;;;;;;4.68;66.68;101365.41;4902096;28;20757;-80
2023/01/28 05:40:54;;;;;;;32.08;16.58;;;;;;;4.30;67.16;101304.28;4891915;28;20185;-82
2023/01/28 05:43:27;;;;;;;32.53;16.17;;;;;;;4.42;67.33;101332.56;4879843;29;20480;-80
2023/01/28 05:45:55;;;;;;;34.22;17.70;;;;;;;4.71;66.53;101370.50;4865197;29;20559;-83
2023/01/28 05:48:27;;;;;;;39.88;17.08;;;;;;;4.75;66.53;101363.28;4848818;29;20489;-80
2023/01/28 05:50:57;;;;;;;32.65;15.95;;;;;;;4.68;67.05;101365.41;4871836;29;20378;-80
2023/01/28 05:53:25;;;;;;;30.52;16.58;;;;;;;4.64;67.22;101369.13;4886502;29;20051;-81
2023/01/28 05:55:52;;;;;;;34.33;18.35;;;;;;;4.32;67.39;101323.44;4874526;29;20314;-79
2023/01/28 05:58:29;;;;;;;31.73;15.82;;;;;;;4.38;66.70;101332.78;4877696;29;20067;-81
2023/01/28 06:00:56;;;;;;;35.72;17.55;;;;;;;4.66;66.44;101366.38;4873169;29;20673;-79
2023/01/28 06:03:27;;;;;;;32.28;16.88;;;;;;;4.03;66.63;101275.84;4898174;28;20059;-81
2023/01/28 06:06:03;;;;;;;31.38;16.67;;;;;;;4.59;66.43;101370.28;4937941;28;20336;-80
2023/01/28 06:08:32;;;;;;;37.33;17.55;;;;;;;4.37;66.90;101352.97;4903616;29;20040;-80
2023/01/28 06:11:10;;;;;;;34.42;17.95;;;;;;;4.67;66.87;101407.56;4872513;29;20082;-81
2023/01/28 06:13:40;;;;;;;27.63;16.38;;;;;;;4.45;67.44;101386.75;4907339;28;20055;-78
2023/01/28 06:16:07;;;;;;;38.40;16.25;;;;;;;4.58;68.11;101415.91;4921016;29;20549;-79
2023/01/28 06:18:46;;;;;;;30.70;17.70;;;;;;;4.62;67.71;101422.72;4912242;28;20128;-79
2023/01/28 06:21:17;;;;;;;35.78;17.55;;;;;;;4.64;67.33;101423.50;4934767;28;20043;-79
2023/01/28 06:23:46;;;;;;;37.75;17.17;;;;;;;4.45;67.82;101411.28;4919960;28;20050;-79
2023/01/28 06:26:16;;;;;;;32.28;17.45;;;;;;;4.50;68.35;101409.25;4908968;28;20784;-79
2023/01/28 06:29:15;;;;;;;37.70;18.85;;;;;;;4.61;67.76;101424.50;4921371;28;20416;-81
2023/01/28 06:31:48;;;;;;;37.35;18.08;;;;;;;4.56;68.46;101428.28;4912893;29;20118;-79
2023/01/28 06:34:25;;;;;;;35.05;18.33;;;;;;;4.07;67.53;101340.44;4929076;28;20239;-81
2023/01/28 06:36:57;;;;;;;34.08;18.40;;;;;;;4.55;68.17;101434.47;4899425;28;20279;-81
2023/01/28 06:39:30;;;;;;;34.50;18.08;;;;;;;4.59;68.16;101433.41;4926639;28;20055;-81
2023/01/28 06:42:03;;;;;;;41.20;18.70;;;;;;;4.43;68.20;101418.38;4882715;29;20292;-82
2023/01/28 06:44:32;;;;;;;40.00;18.77;;;;;;;4.31;68.27;101405.00;4899590;29;20327;-80
2023/01/28 06:47:06;;;;;;;33.97;18.45;;;;;;;4.57;67.77;101441.34;4906980;28;20051;-82
2023/01/28 06:49:33;;;;;;;38.58;18.30;;;;;;;4.33;67.58;101409.25;4905280;29;20057;-79
2023/01/28 06:52:03;;;;;;;38.55;20.55;;;;;;;4.57;67.50;101435.25;4898646;29;20054;-80
2023/01/28 06:54:34;;;;;;;42.90;19.10;;;;;;;4.66;67.77;101458.44;4903982;28;20046;-80
2023/01/28 06:57:03;;;;;;;37.38;19.17;;;;;;;4.53;67.04;101433.69;4917840;28;20057;-79
2023/01/28 06:59:31;;;;;;;34.65;18.88;;;;;;;4.24;66.97;101386.06;4886313;29;20262;-78
2023/01/28 07:01:59;;;;;;;39.28;20.70;;;;;;;4.65;67.59;101456.75;4887645;28;20527;-79
2023/01/28 07:04:26;;;;;;;36.70;18.42;;;;;;;4.43;67.40;101428.91;4920679;28;20043;-79
2023/01/28 07:06:58;;;;;;;44.72;21.05;;;;;;;4.53;67.86;101454.75;4915806;28;20203;-80
2023/01/28 07:09:26;;;;;;;40.38;19.95;;;;;;;4.24;67.73;101425.47;4930407;28;20766;-81
2023/01/28 07:11:53;;;;;;;40.17;19.00;;;;;;;4.48;67.78;101468.97;4919124;28;20047;-81
2023/01/28 07:14:20;;;;;;;38.33;20.75;;;;;;;4.59;67.00;101465.81;4939080;28;20113;-80
2023/01/28 07:16:51;;;;;;;34.72;20.23;;;;;;;4.04;67.51;101380.00;4907925;29;20409;-80
2023/01/28 07:19:25;;;;;;;40.42;19.38;;;;;;;4.56;67.82;101471.19;4909225;29;20054;-82
2023/01/28 07:22:07;;;;;;;41.10;20.17;;;;;;;4.50;67.47;101469.72;4902088;29;20458;-82
2023/01/28 07:24:34;;;;;;;39.28;20.85;;;;;;;4.59;68.27;101486.00;4908278;28;20482;-78
2023/01/28 07:27:00;;;;;;;40.05;20.60;;;;;;;4.40;67.85;101455.34;4914939;28;20058;-79
2023/01/28 07:29:27;;;;;;;39.92;21.55;;;;;;;4.18;68.08;101431.91;4911261;28;20058;-79
2023/01/28 07:31:58;;;;;;;45.38;22.05;;;;;;;4.29;68.15;101441.88;4886015;28;20468;-81
2023/01/28 07:34:38;;;;;;;44.90;22.15;;;;;;;4.48;68.31;101479.47;4903714;28;20557;-82
2023/01/28 07:37:09;;;;;;;43.80;21.92;;;;;;;4.57;68.35;101488.69;4883294;29;20437;-80
2023/01/28 07:39:39;;;;;;;43.38;21.92;;;;;;;4.50;68.83;101505.72;4859353;28;20417;-83
2023/01/28 07:42:06;;;;;;;41.33;21.60;;;;;;;4.09;69.17;101456.00;4921608;28;20129;-80
2023/01/28 07:44:34;;;;;;;43.67;20.65;;;;;;;4.41;68.90;101509.63;4920738;28;20494;-79
2023/01/28 07:47:05;;;;;;;45.85;21.15;;;;;;;4.47;68.90;101508.50;4921692;29;20059;-81
2023/01/28 07:49:35;;;;;;;42.45;22.35;;;;;;;4.54;69.30;101525.69;4904419;28;20059;-82
2023/01/28 07:52:05;;;;;;;40.00;22.55;;;;;;;4.60;69.26;101527.13;4920348;28;20085;-82
2023/01/28 07:54:34;;;;;;;53.67;24.02;;;;;;;4.42;69.18;101506.09;4926315;28;20061;-80
2023/01/28 07:57:01;;;;;;;48.05;23.70;;;;;;;4.54;69.63;101525.69;4909776;28;20281;-80
2023/01/28 07:59:28;;;;;;;44.47;24.67;;;;;;;4.68;68.71;101527.59;4912361;29;20243;-82
2023/01/28 08:01:55;;;;;;;50.45;25.00;;;;;;;4.69;68.87;101529.31;4882179;29;20055;-80
2023/01/28 08:04:29;;;;;;;54.35;25.25;;;;;;;4.76;68.61;101527.22;4888426;28;20054;-81
2023/01/28 08:07:15;;;;;;;47.33;24.83;;;;;;;4.64;69.14;101531.34;4852643;29;20743;-80
2023/01/28 08:09:55;;;;;;;47.88;26.08;;;;;;;4.61;69.46;101531.47;4897725;29;20457;-79
2023/01/28 08:12:23;;;;;;;44.53;25.48;;;;;;;4.60;69.74;101529.78;4909603;29;20130;-82
2023/01/28 08:14:52;;;;;;;58.75;26.05;;;;;;;4.69;69.11;101540.69;4918387;29;20070;-78
2023/01/28 08:17:21;;;;;;;51.78;25.98;;;;;;;4.57;69.97;101533.41;4909365;29;20645;-79
2023/01/28 08:19:48;;;;;;;58.35;27.17;;;;;;;4.50;69.85;101519.69;4909249;29;20051;-82
2023/01/28 08:22:26;;;;;;;58.25;28.20;;;;;;;4.59;69.94;101543.88;4879065;29;20417;-80
2023/01/28 08:24:59;;;;;;;58.95;29.67;;;;;;;3.34;70.29;101344.00;4926502;28;20278;-80
2023/01/28 08:27:36;;;;;;;59.67;32.65;;;;;;;4.56;70.33;101554.50;4895630;28;20287;-80
2023/01/28 08:30:13;;;;;;;58.95;30.77;;;;;;;4.28;70.48;101503.28;4910513;28;20055;-82
2023/01/28 08:32:48;;;;;;;61.60;31.33;;;;;;;4.34;69.81;101487.19;4920009;28;20491;-82
2023/01/28 08:35:25;;;;;;;53.20;29.23;;;;;;;4.46;69.34;101512.88;4897319;29;20067;-81
2023/01/28 08:37:53;;;;;;;61.53;30.40;;;;;;;4.75;69.73;101557.94;4907145;28;20051;-80
2023/01/28 08:40:33;;;;;;;69.25;31.90;;;;;;;4.70;70.11;101552.06;4895317;29;20196;-81
2023/01/28 08:43:09;;;;;;;61.50;30.70;;;;;;;4.78;69.84;101551.69;4899012;29;20138;-81
2023/01/28 08:45:46;;;;;;;61.42;32.42;;;;;;;4.81;68.95;101559.44;4888354;29;20451;-79
2023/01/28 08:48:17;;;;;;;65.85;32.30;;;;;;;4.67;69.06;101525.91;4907073;29;20078;-78
2023/01/28 08:50:50;;;;;;;59.40;31.90;;;;;;;4.72;69.24;101539.69;4888346;29;20695;-82
2023/01/28 08:53:29;;;;;;;64.30;33.47;;;;;;;4.69;69.49;101560.88;4898548;29;20054;-83
2023/01/28 08:56:01;;;;;;;70.45;34.20;;;;;;;4.52;69.26;101542.47;4897865;29;20378;-78
2023/01/28 08:58:33;;;;;;;65.32;33.10;;;;;;;4.72;69.51;101566.84;4865207;29;20195;-81
2023/01/28 09:01:28;;;;;;;60.72;33.20;;;;;;;4.72;69.23;101571.25;4887761;29;20817;-81
2023/01/28 09:04:13;;;;;;;64.70;33.75;;;;;;;4.62;69.26;101573.47;4908072;29;20426;-81
2023/01/28 09:06:56;;;;;;;66.00;34.33;;;;;;;4.69;69.46;101571.41;4898984;29;20051;-82
2023/01/28 09:09:29;;;;;;;63.05;32.75;;;;;;;4.32;69.27;101510.09;4872080;29;20050;-81
2023/01/28 09:12:00;;;;;;;75.47;35.10;;;;;;;4.69;68.61;101567.00;4890133;29;20106;-80
2023/01/28 09:14:30;;;;;;;68.00;33.80;;;;;;;4.66;69.18;101555.75;4894710;29;20406;-80
2023/01/28 09:17:09;;;;;;;67.35;34.28;;;;;;;4.84;68.45;101586.44;4915329;29;20047;-79
2023/01/28 09:19:39;;;;;;;67.82;33.97;;;;;;;4.87;68.86;101574.91;4903539;29;20345;-76
2023/01/28 09:22:20;;;;;;;62.50;32.22;;;;;;;4.88;66.40;101559.06;4889033;29;20052;-76
2023/01/28 09:25:01;;;;;;;67.85;34.75;;;;;;;5.09;67.54;101590.47;4860511;29;20875;-77
2023/01/28 09:27:28;;;;;;;62.40;33.90;;;;;;;4.64;66.62;101505.03;4901097;29;20331;-78
2023/01/28 09:29:55;;;;;;;69.05;33.80;;;;;;;4.93;66.77;101549.16;4889660;29;20087;-77
2023/01/28 09:32:23;;;;;;;66.10;33.75;;;;;;;5.19;66.19;101582.97;4878842;29;20784;-78
2023/01/28 09:34:50;;;;;;;64.22;35.83;;;;;;;4.83;66.25;101521.59;4896732;29;20052;-77
2023/01/28 09:37:22;;;;;;;59.35;31.90;;;;;;;4.70;65.42;101484.50;4893489;29;20049;-79
2023/01/28 09:40:10;;;;;;;80.35;33.30;;;;;;;5.23;65.11;101553.78;4877241;29;20091;-79
2023/01/28 09:43:26;;;;;;;72.65;34.58;;;;;;;5.39;64.43;101564.38;4894684;29;20416;-77
2023/01/28 09:46:01;;;;;;;66.22;33.42;;;;;;;5.74;64.11;101593.28;4893249;29;20315;-78
2023/01/28 09:48:42;;;;;;;64.78;33.63;;;;;;;5.85;63.60;101583.03;4911957;28;20359;-78
2023/01/28 09:51:39;;;;;;;59.65;32.60;;;;;;;5.93;63.20;101593.16;4860211;28;20061;-77
2023/01/28 09:54:57;;;;;;;66.60;34.90;;;;;;;5.59;63.65;101537.00;4903188;28;20055;-77
2023/01/28 09:57:39;;;;;;;70.55;31.85;;;;;;;5.84;63.36;101572.56;4875492;29;20401;-79
2023/01/28 10:00:18;;;;;;;59.42;31.02;;;;;;;5.99;62.30;101571.75;4887306;29;20161;-79
2023/01/28 10:03:44;;;;;;;61.13;31.50;;;;;;;6.13;62.92;101608.78;4899972;29;20047;-79
2023/01/28 10:06:37;;;;;;;59.47;30.30;;;;;;;6.31;61.77;101600.78;4888226;29;20525;-79
2023/01/28 10:09:41;;;;;;;67.95;33.20;;;;;;;6.07;61.36;101543.22;4873347;29;20301;-78
2023/01/28 10:12:36;;;;;;;75.05;33.50;;;;;;;6.37;61.48;101587.28;4897081;29;20066;-75
2023/01/28 10:15:42;;;;;;;56.90;32.30;;;;;;;6.62;60.68;101592.88;4878650;29;20390;-78
2023/01/28 10:18:17;;;;;;;65.60;31.63;;;;;;;6.47;59.88;101556.81;4891935;29;20054;-78
2023/01/28 10:21:04;;;;;;;66.32;34.25;;;;;;;6.45;60.62;101582.41;4905900;29;20102;-81
2023/01/28 10:23:34;;;;;;;64.45;34.53;;;;;;;6.54;60.47;101604.81;4888152;29;20123;-79
2023/01/28 10:26:15;;;;;;;58.78;32.58;;;;;;;6.53;60.24;101593.41;4882210;29;20305;-82
2023/01/28 10:28:52;;;;;;;73.00;34.58;;;;;;;6.20;60.57;101536.31;4907648;29;20413;-79
2023/01/28 10:31:21;;;;;;;76.07;34.08;;;;;;;6.34;60.57;101574.28;4888924;29;20059;-80
2023/01/28 10:33:49;;;;;;;60.17;31.60;;;;;;;5.88;60.68;101495.91;4920885;29;20214;-81
2023/01/28 10:36:17;;;;;;;64.10;33.90;;;;;;;5.94;60.42;101469.22;4880317;29;20044;-81
2023/01/28 10:38:44;;;;;;;60.78;33.15;;;;;;;6.69;59.83;101577.53;4886913;29;20060;-81
2023/01/28 10:41:25;;;;;;;69.72;32.78;;;;;;;6.47;60.00;101570.00;4887488;29;20159;-78
2023/01/28 10:43:56;;;;;;;59.90;31.23;;;;;;;6.00;59.94;101483.88;4880625;29;20575;-80
2023/01/28 10:46:31;;;;;;;55.92;31.55;;;;;;;6.59;60.46;101598.31;4885669;29;20392;-80
2023/01/28 10:49:28;;;;;;;59.58;29.15;;;;;;;6.49;59.96;101598.94;4888921;29;20055;-82
2023/01/28 10:51:57;;;;;;;57.15;29.20;;;;;;;5.96;60.54;101503.41;4883129;29;20056;-80
2023/01/28 10:54:29;;;;;;;53.35;28.95;;;;;;;6.22;60.28;101559.13;4868688;29;20052;-81
2023/01/28 10:57:02;;;;;;;59.13;30.33;;;;;;;6.42;60.84;101588.72;4883515;29;20075;-79
2023/01/28 10:59:31;;;;;;;58.38;29.17;;;;;;;6.17;61.61;101565.50;4889750;29;20315;-80
2023/01/28 11:02:17;;;;;;;60.58;30.40;;;;;;;6.04;62.10;101548.63;4881661;29;20558;-79
2023/01/28 11:04:44;;;;;;;60.90;31.73;;;;;;;6.28;61.64;101582.50;4901475;29;20075;-80
2023/01/28 11:07:20;;;;;;;59.30;31.42;;;;;;;6.27;61.83;101591.38;4903104;29;20043;-81
2023/01/28 11:09:50;;;;;;;52.72;28.00;;;;;;;5.77;61.84;101508.81;4896149;29;20306;-80
2023/01/28 11:12:23;;;;;;;62.30;28.95;;;;;;;6.31;61.45;101584.97;4893137;29;20310;-78
2023/01/28 11:15:04;;;;;;;58.58;27.95;;;;;;;6.47;60.75;101582.34;4903884;29;20051;-81
2023/01/28 11:17:45;;;;;;;65.00;29.50;;;;;;;6.47;60.36;101591.09;4906535;28;20058;-81
2023/01/28 11:20:23;;;;;;;59.25;28.25;;;;;;;6.34;60.23;101582.19;4924787;28;20059;-81
2023/01/28 11:22:53;;;;;;;54.60;26.80;;;;;;;6.34;59.49;101569.00;4910627;29;20364;-79
2023/01/28 11:25:58;;;;;;;58.67;30.45;;;;;;;6.26;59.31;101543.03;4919079;28;20054;-81
2023/01/28 11:28:25;;;;;;;56.03;30.23;;;;;;;6.49;59.56;101581.31;4915487;28;20078;-81
2023/01/28 11:31:03;;;;;;;61.47;30.67;;;;;;;6.10;59.77;101536.94;4917970;28;20301;-80
2023/01/28 11:33:43;;;;;;;55.45;29.60;;;;;;;6.35;59.46;101557.50;4924234;28;20497;-81
2023/01/28 11:36:28;;;;;;;65.57;31.10;;;;;;;6.38;59.36;101562.59;4901574;28;20056;-80
2023/01/28 11:39:01;;;;;;;52.72;28.38;;;;;;;6.26;59.83;101537.75;4874496;29;20380;-79
2023/01/28 11:41:37;;;;;;;51.42;30.45;;;;;;;6.48;59.95;101555.88;4855341;29;20900;-80
2023/01/28 11:44:24;;;;;;;55.50;30.45;;;;;;;6.61;59.11;101575.34;4881017;29;20565;-79
2023/01/28 11:47:28;;;;;;;60.20;30.38;;;;;;;6.72;59.12;101573.88;4899523;29;20497;-80
2023/01/28 11:50:24;;;;;;;64.18;30.90;;;;;;;6.40;58.63;101513.25;4907950;29;20393;-79
2023/01/28 11:52:50;;;;;;;63.03;30.30;;;;;;;6.68;59.19;101553.91;4919897;29;20130;-82
2023/01/28 11:55:38;;;;;;;63.05;30.60;;;;;;;6.77;59.69;101563.91;4897750;28;20740;-78
2023/01/28 11:58:33;;;;;;;61.50;33.17;;;;;;;6.73;59.81;101560.59;4905155;29;20409;-79
2023/01/28 12:01:09;;;;;;;70.72;33.38;;;;;;;6.61;60.09;101538.41;4885644;29;20410;-77
2023/01/28 12:03:48;;;;;;;66.13;31.27;;;;;;;6.77;60.07;101556.00;4885544;29;20056;-78
2023/01/28 12:06:46;;;;;;;68.85;31.52;;;;;;;6.73;59.69;101547.41;4890972;29;20055;-78
2023/01/28 12:09:13;;;;;;;62.08;32.53;;;;;;;6.93;59.61;101545.41;4896076;29;20051;-77
2023/01/28 12:12:10;;;;;;;66.90;32.58;;;;;;;6.96;58.21;101543.41;4924623;28;20070;-78
2023/01/28 12:15:04;;;;;;;61.03;32.70;;;;;;;6.76;59.07;101543.75;4916541;29;20585;-79
2023/01/28 12:18:11;;;;;;;66.22;34.70;;;;;;;6.70;59.38;101538.81;4895624;29;20394;-80
2023/01/28 12:21:09;;;;;;;66.78;34.85;;;;;;;6.60;60.14;101549.91;4863787;29;20075;-79
2023/01/28 12:24:20;;;;;;;65.70;35.45;;;;;;;6.69;60.06;101545.03;4877175;28;20623;-80
2023/01/28 12:27:18;;;;;;;67.65;34.33;;;;;;;6.66;59.68;101538.16;4841658;29;20194;-80
2023/01/28 12:30:19;;;;;;;66.75;34.75;;;;;;;6.48;59.96;101515.44;4849002;29;20063;-79
2023/01/28 12:33:23;;;;;;;65.07;32.80;;;;;;;6.64;60.51;101538.22;4842423;28;20384;-80
2023/01/28 12:36:44;;;;;;;65.00;32.15;;;;;;;6.57;60.64;101544.78;4905734;28;20055;-80